Aérodrome :
LOGIN :

S'inscrire | Disclaimer

   EN    FR    IT 

 










Légende :    VFR   VFR Marginal   IFR   IFR Intensif   IFR Très Intensif
Visi : 
Plafond : 
>= 8 km
>= 3000ft
5 à 8 km
1000 à 3000 ft
1500m à 5 km
500 à 1000 ft
800 à 1500m
200 à 500 ft
< 800m
< 200 ft
Symboles :   Orages  Brouillard  Fortes neiges  Fortes précipitations  Vent > 20 kt
SIGMETs :   Divers  Orages  Givrage  Turbulence  Onde Orograph.  Cendres Volcan.






- Altitude de l'aérodrome : 1558 ft
- Code IATA : IOA


LGIO - Ioannina

DERNIER METAR :
  • 290920Z VRB04KT 9999 FEW015 11/05 Q1012

METARs EXPIRÉS :
  • 290850Z VRB03KT 9999 FEW015 SCT030 10/06 Q1012
  • 290820Z VRB03KT 9999 SCT014 09/06 Q1012
  • 290750Z AUTO VRB01KT //// // ////// 08/06 Q1012 RE//
  • 290720Z AUTO VRB02KT //// // ////// 07/06 Q1012 RE//
  • 290650Z AUTO VRB02KT //// // ////// 06/06 Q1012 RE//

TAF TAF LGIO
Valide du 29 à 09h jusqu'au 29 à 18h UTC


290800Z 2909/2918 VRB03KT 9999 SCT025 SCT080
PROB40
TEMPO 2912/2916 6000 RA FEW010 SCT025 BKN080
BECMG 2916/2918 FEW025



MET'MAP, la Météo Aéronautique d'un coup d'oeil ! - Copyright ORBIFLY Décembre 2007 - Disclaimer

ORBIFLY MET'MAP TEAM :

Programmation & Développement : Alexandra Zaïnal
Sur une idée originale de : Baudouin d'Aumeries
Assistance à la programmation : Marc-Olivier Méhu
Soutien technique & logistique : Manuel Goepfert

Contact : metmap@orbifly.com




SOURCES & CREDITS :

   NOAA